createdAt,value
2023-11-01T00:04:37.396Z,52.8
2023-11-01T00:10:28.560Z,52.7
2023-11-01T00:16:04.742Z,52.7
2023-11-01T00:21:41.711Z,52.6
2023-11-01T00:27:35.385Z,52.6
2023-11-01T00:33:11.741Z,52.6
2023-11-01T00:38:48.931Z,52.6
2023-11-01T00:44:24.730Z,52.4
2023-11-01T00:50:01.254Z,52.4
2023-11-01T01:06:37.200Z,52.3
2023-11-01T01:12:14.404Z,52.3
2023-11-01T01:18:06.159Z,52.3
2023-11-01T01:23:43.750Z,52.2
2023-11-01T01:29:35.941Z,52.1
2023-11-01T01:35:12.290Z,52.1
2023-11-01T01:41:04.005Z,52.1
2023-11-01T01:46:40.706Z,52.1
2023-11-01T02:03:18.276Z,51.9
2023-11-01T02:08:57.293Z,51.9
2023-11-01T02:14:33.287Z,51.8
2023-11-01T02:20:09.726Z,51.8
2023-11-01T02:25:45.464Z,51.8
2023-11-01T02:31:21.792Z,51.7
2023-11-01T02:36:58.619Z,51.6
2023-11-01T02:42:50.255Z,51.6
2023-11-01T02:48:27.022Z,51.6
2023-11-01T02:54:03.507Z,51.6
2023-11-01T02:59:23.811Z,51.4
2023-11-01T03:04:44.945Z,51.4
2023-11-01T03:10:21.520Z,51.4
2023-11-01T03:15:57.745Z,51.4
2023-11-01T03:21:34.405Z,51.3
2023-11-01T03:27:10.404Z,51.3
2023-11-01T03:32:46.585Z,51.3
2023-11-01T03:38:38.858Z,51.2
2023-11-01T03:44:15.440Z,51.1
2023-11-01T03:50:07.430Z,51.1
2023-11-01T03:55:44.245Z,51.1
2023-11-01T04:01:21.308Z,51
2023-11-01T04:06:58.828Z,51
2023-11-01T04:12:50.201Z,50.9
2023-11-01T04:18:26.571Z,50.9
2023-11-01T04:24:02.153Z,50.8
2023-11-01T04:29:38.056Z,50.8
2023-11-01T04:35:14.988Z,50.8
2023-11-01T04:40:35.943Z,50.7
2023-11-01T04:45:56.987Z,50.7
2023-11-01T04:51:53.018Z,50.6
2023-11-01T04:57:29.840Z,50.6
2023-11-01T05:03:06.722Z,50.6
2023-11-01T05:08:59.813Z,50.5
2023-11-01T05:14:35.696Z,50.5
2023-11-01T05:20:12.146Z,50.4
2023-11-01T05:25:49.018Z,50.4
2023-11-01T05:31:26.110Z,50.3
2023-11-01T05:37:05.154Z,50.3
2023-11-01T05:42:26.648Z,50.3
2023-11-01T05:47:32.413Z,50.3
2023-11-01T05:52:53.230Z,50.2
2023-11-01T05:58:44.902Z,50.1
2023-11-01T06:04:06.395Z,50.1
2023-11-01T06:09:43.280Z,50.1
2023-11-01T06:15:03.890Z,50
2023-11-01T06:20:42.290Z,50
2023-11-01T06:26:02.534Z,49.9
2023-11-01T06:31:39.629Z,49.9
2023-11-01T06:37:17.384Z,49.8
2023-11-01T06:42:54.324Z,49.8
2023-11-01T06:48:31.952Z,49.8
2023-11-01T06:54:08.741Z,49.7
2023-11-01T06:59:32.261Z,49.7
2023-11-01T07:04:54.850Z,49.6
2023-11-01T07:10:30.668Z,49.6
2023-11-01T07:15:51.070Z,49.6
2023-11-01T07:21:27.931Z,49.5
2023-11-01T07:26:49.097Z,49.4
2023-11-01T07:32:25.201Z,49.4
2023-11-01T07:38:01.794Z,49.4
2023-11-01T07:43:37.663Z,49.4
2023-11-01T07:49:15.927Z,49.3
2023-11-01T07:54:52.214Z,49.3
2023-11-01T08:00:13.033Z,49.2
2023-11-01T08:05:50.922Z,49.2
2023-11-01T08:11:14.392Z,49.1
2023-11-01T08:16:36.886Z,49.1
2023-11-01T08:21:42.489Z,49.1
2023-11-01T08:26:48.149Z,49
2023-11-01T08:32:25.103Z,49
2023-11-01T08:37:46.986Z,48.9
2023-11-01T08:43:08.336Z,48.9
2023-11-01T08:49:00.898Z,48.9
2023-11-01T08:54:06.907Z,48.8
2023-11-01T08:59:12.067Z,48.8
2023-11-01T09:05:07.567Z,48.8
2023-11-01T09:10:16.639Z,48.8
2023-11-01T09:15:40.526Z,48.7
2023-11-01T09:20:48.450Z,48.7
2023-11-01T09:26:24.743Z,48.6
2023-11-01T09:31:46.045Z,48.6
2023-11-01T09:36:52.414Z,48.6
2023-11-01T09:42:13.248Z,48.5
2023-11-01T09:47:34.868Z,48.5
2023-11-01T09:52:56.385Z,48.4
2023-11-01T09:58:32.985Z,48.4
2023-11-01T10:03:54.626Z,48.4
2023-11-01T10:09:15.221Z,48.3
2023-11-01T10:14:24.352Z,48.3
2023-11-01T10:19:30.148Z,48.3
2023-11-01T10:24:36.328Z,48.3
2023-11-01T10:29:58.638Z,48.8
2023-11-01T10:35:23.969Z,49.1
2023-11-01T10:40:44.677Z,49.5
2023-11-01T10:46:24.122Z,49.9
2023-11-01T10:52:04.621Z,50.3
2023-11-01T10:57:43.007Z,50.6
2023-11-01T11:03:19.973Z,51.1
2023-11-01T11:09:02.850Z,51.4
2023-11-01T11:14:40.952Z,51.8
2023-11-01T11:20:22.411Z,52
2023-11-01T11:30:37.597Z,52.6
2023-11-01T11:36:00.204Z,52.8
2023-11-01T11:41:36.731Z,52.9
2023-11-01T11:46:42.241Z,53.1
2023-11-01T11:52:19.424Z,53.3
2023-11-01T11:57:41.580Z,53.4
2023-11-01T12:03:05.398Z,53.6
2023-11-01T12:08:11.115Z,53.7
2023-11-01T12:14:03.116Z,53.9
2023-11-01T12:19:39.935Z,54
2023-11-01T12:25:17.891Z,54.1
2023-11-01T12:30:24.314Z,54.3
2023-11-01T12:35:30.393Z,54.3
2023-11-01T12:40:38.774Z,54.3
2023-11-01T12:46:16.122Z,54.4
2023-11-01T12:51:22.360Z,54.4
2023-11-01T12:57:14.289Z,54.4
2023-11-01T13:02:54.685Z,54.4
2023-11-01T13:08:47.726Z,54.3
2023-11-01T13:14:12.640Z,54.3
2023-11-01T13:20:05.717Z,54.3
2023-11-01T13:25:45.427Z,54.3
2023-11-01T13:31:38.041Z,54.3
2023-11-01T13:37:31.460Z,54.3
2023-11-01T13:43:07.772Z,54.2
2023-11-01T13:48:32.297Z,54.2
2023-11-01T13:54:10.946Z,54.1
2023-11-01T14:00:14.868Z,54.1
2023-11-01T14:06:12.113Z,54.1
2023-11-01T14:12:04.250Z,54.1
2023-11-01T14:17:41.930Z,54
2023-11-01T14:23:36.905Z,54
2023-11-01T14:29:13.294Z,53.9
2023-11-01T14:35:05.738Z,53.9
2023-11-01T14:40:41.881Z,53.9
2023-11-01T14:46:35.217Z,53.8
2023-11-01T14:52:12.465Z,53.8
2023-11-01T14:57:48.793Z,53.8
2023-11-01T15:03:25.647Z,53.8
2023-11-01T15:09:17.457Z,53.7
2023-11-01T15:14:55.630Z,53.7
2023-11-01T15:20:33.068Z,53.6
2023-11-01T15:26:24.557Z,53.6
2023-11-01T15:32:18.361Z,53.6
2023-11-01T15:38:16.203Z,53.6
2023-11-01T15:44:08.145Z,53.5
2023-11-01T15:50:04.863Z,53.4
2023-11-01T15:55:44.859Z,53.4
2023-11-01T16:01:24.120Z,53.4
2023-11-01T16:07:06.091Z,53.4
2023-11-01T16:12:42.986Z,53.3
2023-11-01T16:18:38.977Z,53.3
2023-11-01T16:24:32.977Z,53.3
2023-11-01T16:30:09.969Z,53.2
2023-11-01T16:35:49.762Z,53.1
2023-11-01T16:41:27.061Z,53.1
2023-11-01T16:47:22.905Z,53.1
2023-11-01T16:53:14.765Z,53.1
2023-11-01T16:59:08.126Z,53
2023-11-01T17:04:50.667Z,52.9
2023-11-01T17:10:27.429Z,52.9
2023-11-01T17:16:19.008Z,52.9
2023-11-01T17:22:11.679Z,52.9
2023-11-01T17:28:02.440Z,52.8
2023-11-01T17:33:42.221Z,52.6
2023-11-01T17:39:29.103Z,52.3
2023-11-01T17:45:23.400Z,51.1
2023-11-01T17:51:15.427Z,50.7
2023-11-01T17:57:07.320Z,50.5
2023-11-01T18:03:00.362Z,50.4
2023-11-01T18:08:23.953Z,50.3
2023-11-01T18:13:46.279Z,50.2
2023-11-01T18:19:27.176Z,50.1
2023-11-01T18:25:25.682Z,50.1
2023-11-01T18:31:06.248Z,50
2023-11-01T18:36:44.380Z,50
2023-11-01T18:42:22.693Z,49.9
2023-11-01T18:48:01.674Z,49.9
2023-11-01T18:53:39.165Z,49.8
2023-11-01T18:59:17.523Z,49.8
2023-11-01T19:05:11.894Z,49.8
2023-11-01T19:11:05.313Z,49.5
2023-11-01T19:16:43.197Z,49.3
2023-11-01T19:22:42.044Z,49.3
2023-11-01T19:28:41.161Z,49.3
2023-11-01T19:34:32.731Z,49.2
2023-11-01T19:40:07.198Z,49.1
2023-11-01T19:45:45.624Z,49.1
2023-11-01T19:51:08.498Z,49.1
2023-11-01T19:56:50.543Z,49.1
2023-11-01T20:02:13.894Z,49
2023-11-01T20:07:53.079Z,48.9
2023-11-01T20:13:31.790Z,48.8
2023-11-01T20:19:02.723Z,48.6
2023-11-01T20:24:56.860Z,48.5
2023-11-01T20:30:22.831Z,48.4
2023-11-01T20:36:00.932Z,48.4
2023-11-01T20:41:38.283Z,48.4
2023-11-01T20:47:15.951Z,48.4
2023-11-01T20:52:54.521Z,48.3
2023-11-01T20:58:16.766Z,48.3
2023-11-01T21:03:55.334Z,48.3
2023-11-01T21:09:17.681Z,48.2
2023-11-01T21:14:57.904Z,48.2
2023-11-01T21:20:35.618Z,48.1
2023-11-01T21:26:01.488Z,48.1
2023-11-01T21:31:38.092Z,48.1
2023-11-01T21:37:27.418Z,48
2023-11-01T21:43:02.943Z,47.9
2023-11-01T21:48:51.141Z,47.9
2023-11-01T21:54:12.299Z,47.9
2023-11-01T21:59:43.035Z,47.9
2023-11-01T22:05:13.795Z,47.8
2023-11-01T22:10:35.225Z,47.8
2023-11-01T22:16:11.372Z,47.8
2023-11-01T22:21:49.867Z,47.7
2023-11-01T22:27:27.646Z,47.6
2023-11-01T22:33:20.024Z,47.6
2023-11-01T22:38:57.298Z,47.6
2023-11-01T22:44:34.175Z,47.6
2023-11-01T22:50:26.780Z,47.5
2023-11-01T22:56:31.400Z,47.4
2023-11-01T23:02:08.006Z,47.4
2023-11-01T23:08:00.249Z,47.4
2023-11-01T23:13:37.010Z,47.3
2023-11-01T23:19:13.926Z,47.3
2023-11-01T23:24:50.874Z,47.3
2023-11-01T23:30:39.365Z,47.2
2023-11-01T23:36:19.594Z,47.2
2023-11-01T23:42:02.865Z,47.1
2023-11-01T23:47:39.968Z,47.1
2023-11-01T23:54:07.455Z,47.1
2023-11-01T23:59:59.587Z,47
